Terminal Aerodrome Forecast
Issued by NWS Cleveland, OH

Home | Current Version | Previous Version | Graphics & Text | Print | Product List | Glossary Off
Versions: 1 2 3 4 5 6 7 8 9 10 11 12

000
FTUS41 KCLE 182339
TAFERI
TAF
KERI 182339Z 1900/1924 16007KT P6SM SKC WS020/21030KT
     FM190400 19012KT P6SM SKC WS020/23035KT
     FM191200 21014G22KT P6SM SCT250
     FM191700 24014KT P6SM SCT250
     FM192300 27007KT P6SM SCT250=

USA.gov is the U.S. government's official web portal to all federal, state and local government web resources and services.